Terminal Aerodrome Forecast
Issued by NWS Jackson, MS

Home | Current Version | Previous Version | Text Only | Print | Product List | Glossary On
Versions: 1 2 3 4 5 6 7 8 9 10 11 12 13 14 15 16 17
072
FTUS44 KJAN 252344 RRA
TAFJAN
TAF
KJAN 252344Z 2600/2624 19004KT P6SM SCT050 BKN090
     FM261100 18003KT 6SM BR BKN015 BKN090
     FM261400 19003KT P6SM SCT025 BKN040
     FM261500 19003KT P6SM VCTS SCT025 BKN040CB
     FM261900 21004KT 6SM SHRA VCTS SCT030 BKN050CB=

USA.gov is the U.S. government's official web portal to all federal, state and local government web resources and services.